PWSweather.com
Personal Weather Stations
Station Observations

PoschiavoCH

Lat: 46.31962499999999, Lon: 10.066551000000004

Elevation: 3517

Station Type: WH 1080

http://www.meteoposchiavo.com

High Low Average
Temperature 52.0°F11.1°C 32.0°F0.0°C 37.9°F3.3°C
Dew Point 36.9°F2.7°C 23.0°F-5.0°C 29.2°F-1.6°C
Winds 3.5 mph 5.6 kmh Calm Calm Calm WSWCalm WSW
Wind Gusts 5.8 mph9.3 kmh -- --
Humidity 98% 32% 73%
Pressure 26.58 in900.1 mb 26.26 in889.3 mb -
Precipitation 0.26 in6.6 mm - -
Hour Temp Dew Point Humidity Winds Wind Gusts Pressure Precip Precip Rate Daily Precip Total
12:00 AM 52.0°F11.1°C 23.0°F-5.0°C 32% Calm Calm 1.2 mph1.9 kmh 26.53 in898.4 mb - 0.00 in0.0 mm 0.00 in0.0 mm
12:10 AM 52.0°F11.1°C 23.0°F-5.0°C 32% Calm Calm 1.2 mph1.9 kmh 26.53 in898.4 mb - 0.00 in0.0 mm 0.00 in0.0 mm
12:15 AM 52.0°F11.1°C 23.0°F-5.0°C 32% Calm Calm 1.2 mph1.9 kmh 26.53 in898.4 mb - 0.00 in0.0 mm 0.00 in0.0 mm
12:20 AM 52.0°F11.1°C 23.0°F-5.0°C 32% Calm Calm 1.2 mph1.9 kmh 26.53 in898.4 mb - 0.00 in0.0 mm 0.00 in0.0 mm
12:25 AM 52.0°F11.1°C 23.0°F-5.0°C 32% Calm Calm 1.2 mph1.9 kmh 26.53 in898.4 mb - 0.00 in0.0 mm 0.00 in0.0 mm
12:30 AM 52.0°F11.1°C 23.0°F-5.0°C 32% Calm Calm 1.2 mph1.9 kmh 26.53 in898.4 mb - 0.00 in0.0 mm 0.00 in0.0 mm
12:35 AM 52.0°F11.1°C 23.0°F-5.0°C 32% Calm Calm 1.2 mph1.9 kmh 26.53 in898.4 mb - 0.00 in0.0 mm 0.00 in0.0 mm
12:40 AM 52.0°F11.1°C 23.0°F-5.0°C 32% Calm Calm 1.2 mph1.9 kmh 26.53 in898.4 mb - 0.00 in0.0 mm 0.00 in0.0 mm
12:45 AM 52.0°F11.1°C 23.0°F-5.0°C 32% Calm Calm 1.2 mph1.9 kmh 26.53 in898.4 mb - 0.00 in0.0 mm 0.00 in0.0 mm
12:50 AM 52.0°F11.1°C 23.0°F-5.0°C 32% Calm Calm 1.2 mph1.9 kmh 26.53 in898.4 mb - 0.00 in0.0 mm 0.00 in0.0 mm
12:55 AM 52.0°F11.1°C 23.0°F-5.0°C 32% Calm Calm 1.2 mph1.9 kmh 26.53 in898.4 mb - 0.00 in0.0 mm 0.00 in0.0 mm
01:00 AM 52.0°F11.1°C 23.0°F-5.0°C 32% Calm Calm 1.2 mph1.9 kmh 26.53 in898.4 mb - 0.00 in0.0 mm 0.00 in0.0 mm
01:10 AM 52.0°F11.1°C 23.0°F-5.0°C 32% Calm Calm 1.2 mph1.9 kmh 26.53 in898.4 mb - 0.00 in0.0 mm 0.00 in0.0 mm
01:15 AM 36.0°F2.2°C 24.2°F-4.3°C 62% Calm Calm -- 26.57 in899.8 mb - 0.00 in0.0 mm 0.00 in0.0 mm
01:20 AM 36.0°F2.2°C 24.6°F-4.1°C 63% Calm Calm -- 26.58 in900.1 mb - 0.00 in0.0 mm 0.00 in0.0 mm
01:25 AM 35.0°F1.7°C 24.4°F-4.2°C 65% Calm Calm -- 26.57 in899.8 mb - 0.00 in0.0 mm 0.00 in0.0 mm
01:30 AM 36.0°F2.2°C 25.0°F-3.9°C 64% Calm Calm -- 26.58 in900.1 mb - 0.00 in0.0 mm 0.00 in0.0 mm
01:35 AM 36.0°F2.2°C 24.2°F-4.3°C 62% Calm Calm -- 26.57 in899.8 mb - 0.00 in0.0 mm 0.00 in0.0 mm
01:40 AM 36.0°F2.2°C 25.4°F-3.7°C 65% Calm Calm -- 26.57 in899.8 mb - 0.00 in0.0 mm 0.00 in0.0 mm
01:45 AM 36.0°F2.2°C 26.1°F-3.3°C 67% Calm Calm -- 26.57 in899.8 mb - 0.00 in0.0 mm 0.00 in0.0 mm
01:50 AM 35.5°F1.9°C 24.9°F-3.9°C 65% Calm Calm -- 26.57 in899.8 mb - 0.00 in0.0 mm 0.00 in0.0 mm
01:55 AM 36.0°F2.2°C 24.6°F-4.1°C 63% Calm Calm -- 26.57 in899.8 mb - 0.00 in0.0 mm 0.00 in0.0 mm
02:00 AM 37.0°F2.8°C 24.8°F-4.0°C 61% Calm Calm -- 26.57 in899.8 mb - 0.00 in0.0 mm 0.00 in0.0 mm
02:10 AM 35.0°F1.7°C 24.4°F-4.2°C 65% Calm Calm -- 26.57 in899.8 mb - 0.00 in0.0 mm 0.00 in0.0 mm
02:15 AM 35.0°F1.7°C 24.4°F-4.2°C 65% Calm Calm -- 26.56 in899.4 mb - 0.00 in0.0 mm 0.00 in0.0 mm
02:20 AM 35.0°F1.7°C 24.4°F-4.2°C 65% Calm Calm -- 26.56 in899.4 mb - 0.00 in0.0 mm 0.00 in0.0 mm
02:25 AM 35.0°F1.7°C 24.8°F-4.0°C 66% Calm Calm -- 26.56 in899.4 mb - 0.00 in0.0 mm 0.00 in0.0 mm
02:30 AM 36.0°F2.2°C 25.4°F-3.7°C 65% Calm Calm -- 26.56 in899.4 mb - 0.00 in0.0 mm 0.00 in0.0 mm
02:35 AM 36.0°F2.2°C 25.0°F-3.9°C 64% Calm Calm -- 26.56 in899.4 mb - 0.00 in0.0 mm 0.00 in0.0 mm
02:40 AM 36.0°F2.2°C 24.6°F-4.1°C 63% Calm Calm -- 26.56 in899.4 mb - 0.00 in0.0 mm 0.00 in0.0 mm
02:45 AM 36.0°F2.2°C 24.2°F-4.3°C 62% Calm Calm -- 26.56 in899.4 mb - 0.00 in0.0 mm 0.00 in0.0 mm
02:50 AM 36.0°F2.2°C 24.6°F-4.1°C 63% Calm Calm -- 26.55 in899.1 mb - 0.00 in0.0 mm 0.00 in0.0 mm
02:55 AM 36.0°F2.2°C 25.4°F-3.7°C 65% Calm Calm -- 26.54 in898.7 mb - 0.00 in0.0 mm 0.00 in0.0 mm
03:00 AM 35.0°F1.7°C 25.1°F-3.8°C 67% Calm Calm -- 26.55 in899.1 mb - 0.00 in0.0 mm 0.00 in0.0 mm
03:10 AM 35.0°F1.7°C 24.4°F-4.2°C 65% Calm Calm -- 26.55 in899.1 mb - 0.00 in0.0 mm 0.00 in0.0 mm
03:15 AM 35.0°F1.7°C 24.8°F-4.0°C 66% Calm Calm -- 26.55 in899.1 mb - 0.00 in0.0 mm 0.00 in0.0 mm
03:20 AM 35.0°F1.7°C 24.4°F-4.2°C 65% Calm Calm -- 26.55 in899.1 mb - 0.00 in0.0 mm 0.00 in0.0 mm
03:25 AM 35.0°F1.7°C 25.5°F-3.6°C 68% Calm Calm -- 26.55 in899.1 mb - 0.00 in0.0 mm 0.00 in0.0 mm
03:30 AM 34.3°F1.3°C 25.2°F-3.8°C 69% Calm Calm -- 26.54 in898.7 mb - 0.00 in0.0 mm 0.00 in0.0 mm
03:35 AM 34.0°F1.1°C 24.5°F-4.2°C 68% Calm Calm -- 26.54 in898.7 mb - 0.00 in0.0 mm 0.00 in0.0 mm
03:40 AM 35.0°F1.7°C 24.4°F-4.2°C 65% Calm Calm -- 26.54 in898.7 mb - 0.00 in0.0 mm 0.00 in0.0 mm
03:45 AM 35.0°F1.7°C 24.8°F-4.0°C 66% Calm Calm -- 26.54 in898.7 mb - 0.00 in0.0 mm 0.00 in0.0 mm
03:50 AM 36.0°F2.2°C 24.6°F-4.1°C 63% Calm Calm 1.2 mph1.9 kmh 26.54 in898.7 mb - 0.00 in0.0 mm 0.00 in0.0 mm
03:55 AM 36.0°F2.2°C 25.0°F-3.9°C 64% Calm Calm -- 26.54 in898.7 mb - 0.00 in0.0 mm 0.00 in0.0 mm
04:00 AM 35.0°F1.7°C 25.1°F-3.8°C 67% Calm Calm -- 26.54 in898.7 mb - 0.00 in0.0 mm 0.00 in0.0 mm
04:10 AM 34.0°F1.1°C 24.5°F-4.2°C 68% Calm Calm -- 26.54 in898.7 mb - 0.00 in0.0 mm 0.00 in0.0 mm
04:15 AM 34.0°F1.1°C 24.2°F-4.3°C 67% Calm Calm -- 26.53 in898.4 mb - 0.00 in0.0 mm 0.00 in0.0 mm
04:20 AM 34.0°F1.1°C 24.5°F-4.2°C 68% Calm Calm -- 26.53 in898.4 mb - 0.00 in0.0 mm 0.00 in0.0 mm
04:25 AM 34.0°F1.1°C 24.9°F-3.9°C 69% Calm Calm -- 26.53 in898.4 mb - 0.00 in0.0 mm 0.00 in0.0 mm
04:30 AM 34.0°F1.1°C 25.6°F-3.6°C 71% Calm Calm -- 26.54 in898.7 mb - 0.00 in0.0 mm 0.00 in0.0 mm
04:35 AM 34.0°F1.1°C 23.5°F-4.7°C 65% Calm Calm -- 26.53 in898.4 mb - 0.00 in0.0 mm 0.00 in0.0 mm
04:40 AM 33.0°F0.6°C 23.6°F-4.7°C 68% Calm Calm -- 26.53 in898.4 mb - 0.00 in0.0 mm 0.00 in0.0 mm
04:45 AM 33.0°F0.6°C 23.2°F-4.9°C 67% Calm Calm -- 26.52 in898.1 mb - 0.00 in0.0 mm 0.00 in0.0 mm
04:50 AM 33.0°F0.6°C 23.9°F-4.5°C 69% Calm Calm -- 26.53 in898.4 mb - 0.00 in0.0 mm 0.00 in0.0 mm
04:55 AM 33.0°F0.6°C 23.9°F-4.5°C 69% Calm Calm -- 26.53 in898.4 mb - 0.00 in0.0 mm 0.00 in0.0 mm
05:00 AM 33.0°F0.6°C 23.9°F-4.5°C 69% Calm Calm -- 26.52 in898.1 mb - 0.00 in0.0 mm 0.00 in0.0 mm
05:10 AM 33.0°F0.6°C 23.9°F-4.5°C 69% Calm Calm -- 26.53 in898.4 mb - 0.00 in0.0 mm 0.00 in0.0 mm
05:15 AM 33.0°F0.6°C 23.6°F-4.7°C 68% Calm Calm -- 26.53 in898.4 mb - 0.00 in0.0 mm 0.00 in0.0 mm
05:20 AM 34.0°F1.1°C 24.2°F-4.3°C 67% Calm Calm -- 26.53 in898.4 mb - 0.00 in0.0 mm 0.00 in0.0 mm
05:25 AM 33.0°F0.6°C 23.9°F-4.5°C 69% Calm Calm -- 26.52 in898.1 mb - 0.00 in0.0 mm 0.00 in0.0 mm
05:30 AM 33.0°F0.6°C 23.9°F-4.5°C 69% Calm Calm -- 26.53 in898.4 mb - 0.00 in0.0 mm 0.00 in0.0 mm
05:35 AM 32.0°F0.0°C 23.3°F-4.8°C 70% Calm Calm -- 26.52 in898.1 mb - 0.00 in0.0 mm 0.00 in0.0 mm
05:40 AM 33.0°F0.6°C 23.9°F-4.5°C 69% Calm Calm -- 26.53 in898.4 mb - 0.00 in0.0 mm 0.00 in0.0 mm
05:45 AM 33.0°F0.6°C 24.3°F-4.3°C 70% Calm Calm -- 26.52 in898.1 mb - 0.00 in0.0 mm 0.00 in0.0 mm
05:50 AM 32.0°F0.0°C 23.3°F-4.8°C 70% Calm Calm -- 26.52 in898.1 mb - 0.00 in0.0 mm 0.00 in0.0 mm
05:55 AM 33.0°F0.6°C 23.9°F-4.5°C 69% Calm Calm -- 26.51 in897.7 mb - 0.00 in0.0 mm 0.00 in0.0 mm
06:00 AM 33.0°F0.6°C 24.3°F-4.3°C 70% Calm Calm -- 26.51 in897.7 mb - 0.00 in0.0 mm 0.00 in0.0 mm
06:10 AM 32.9°F0.5°C 24.2°F-4.3°C 70% Calm Calm -- 26.51 in897.7 mb - 0.00 in0.0 mm 0.00 in0.0 mm
06:15 AM 32.0°F0.0°C 23.7°F-4.6°C 71% Calm Calm -- 26.51 in897.7 mb - 0.00 in0.0 mm 0.00 in0.0 mm
06:20 AM 33.0°F0.6°C 25.0°F-3.9°C 72% Calm Calm -- 26.50 in897.4 mb - 0.00 in0.0 mm 0.00 in0.0 mm
06:25 AM 34.0°F1.1°C 24.2°F-4.3°C 67% Calm Calm -- 26.51 in897.7 mb - 0.00 in0.0 mm 0.00 in0.0 mm
06:30 AM 34.0°F1.1°C 24.2°F-4.3°C 67% Calm Calm -- 26.50 in897.4 mb - 0.00 in0.0 mm 0.00 in0.0 mm
06:35 AM 33.0°F0.6°C 23.9°F-4.5°C 69% Calm Calm -- 26.50 in897.4 mb - 0.00 in0.0 mm 0.00 in0.0 mm
06:40 AM 33.0°F0.6°C 23.9°F-4.5°C 69% Calm Calm -- 26.49 in897.1 mb - 0.00 in0.0 mm 0.00 in0.0 mm
06:45 AM 33.0°F0.6°C 23.9°F-4.5°C 69% Calm Calm -- 26.50 in897.4 mb - 0.00 in0.0 mm 0.00 in0.0 mm
06:50 AM 33.9°F1.1°C 24.1°F-4.4°C 67% Calm Calm -- 26.50 in897.4 mb - 0.00 in0.0 mm 0.00 in0.0 mm
06:55 AM 33.7°F0.9°C 24.2°F-4.3°C 68% Calm Calm -- 26.50 in897.4 mb - 0.00 in0.0 mm 0.00 in0.0 mm
07:00 AM 33.0°F0.6°C 24.3°F-4.3°C 70% Calm Calm -- 26.49 in897.1 mb - 0.00 in0.0 mm 0.00 in0.0 mm
07:10 AM 32.0°F0.0°C 24.3°F-4.3°C 73% Calm Calm -- 26.49 in897.1 mb - 0.00 in0.0 mm 0.00 in0.0 mm
07:15 AM 32.0°F0.0°C 24.0°F-4.4°C 72% Calm Calm -- 26.49 in897.1 mb - 0.00 in0.0 mm 0.00 in0.0 mm
07:20 AM 32.0°F0.0°C 24.3°F-4.3°C 73% Calm Calm -- 26.49 in897.1 mb - 0.00 in0.0 mm 0.00 in0.0 mm
07:25 AM 32.0°F0.0°C 23.7°F-4.6°C 71% Calm Calm -- 26.49 in897.1 mb - 0.00 in0.0 mm 0.00 in0.0 mm
07:30 AM 33.0°F0.6°C 23.9°F-4.5°C 69% Calm Calm -- 26.49 in897.1 mb - 0.00 in0.0 mm 0.00 in0.0 mm
07:35 AM 33.0°F0.6°C 23.9°F-4.5°C 69% Calm Calm -- 26.49 in897.1 mb - 0.00 in0.0 mm 0.00 in0.0 mm
07:40 AM 33.0°F0.6°C 24.3°F-4.3°C 70% Calm Calm -- 26.49 in897.1 mb - 0.00 in0.0 mm 0.00 in0.0 mm
07:45 AM 33.0°F0.6°C 24.6°F-4.1°C 71% Calm Calm -- 26.49 in897.1 mb - 0.00 in0.0 mm 0.00 in0.0 mm
07:50 AM 33.0°F0.6°C 25.3°F-3.7°C 73% Calm Calm -- 26.49 in897.1 mb - 0.00 in0.0 mm 0.00 in0.0 mm
07:55 AM 33.0°F0.6°C 24.6°F-4.1°C 71% Calm Calm -- 26.48 in896.7 mb - 0.00 in0.0 mm 0.00 in0.0 mm
08:00 AM 33.0°F0.6°C 24.6°F-4.1°C 71% Calm Calm -- 26.47 in896.4 mb - 0.00 in0.0 mm 0.00 in0.0 mm
08:10 AM 33.0°F0.6°C 23.9°F-4.5°C 69% Calm Calm -- 26.48 in896.7 mb - 0.00 in0.0 mm 0.00 in0.0 mm
08:15 AM 33.0°F0.6°C 25.0°F-3.9°C 72% Calm Calm -- 26.48 in896.7 mb - 0.00 in0.0 mm 0.00 in0.0 mm
08:20 AM 33.0°F0.6°C 24.3°F-4.3°C 70% Calm Calm -- 26.47 in896.4 mb - 0.00 in0.0 mm 0.00 in0.0 mm
08:25 AM 33.5°F0.8°C 24.8°F-4.0°C 70% Calm Calm -- 26.47 in896.4 mb - 0.00 in0.0 mm 0.00 in0.0 mm
08:30 AM 34.0°F1.1°C 24.9°F-3.9°C 69% Calm Calm -- 26.47 in896.4 mb - 0.00 in0.0 mm 0.00 in0.0 mm
08:35 AM 35.0°F1.7°C 25.1°F-3.8°C 67% Calm Calm -- 26.47 in896.4 mb - 0.00 in0.0 mm 0.00 in0.0 mm
08:40 AM 35.0°F1.7°C 24.8°F-4.0°C 66% Calm Calm -- 26.47 in896.4 mb - 0.00 in0.0 mm 0.00 in0.0 mm
08:45 AM 36.0°F2.2°C 23.8°F-4.6°C 61% Calm Calm -- 26.46 in896.0 mb - 0.00 in0.0 mm 0.00 in0.0 mm
08:50 AM 36.0°F2.2°C 25.7°F-3.5°C 66% Calm Calm -- 26.45 in895.7 mb - 0.00 in0.0 mm 0.00 in0.0 mm
08:55 AM 36.0°F2.2°C 26.5°F-3.1°C 68% Calm Calm -- 26.46 in896.0 mb - 0.00 in0.0 mm 0.00 in0.0 mm
09:00 AM 35.0°F1.7°C 25.9°F-3.4°C 69% Calm Calm -- 26.46 in896.0 mb - 0.00 in0.0 mm 0.00 in0.0 mm
09:10 AM 36.1°F2.3°C 26.2°F-3.2°C 67% Calm Calm 1.2 mph1.9 kmh 26.46 in896.0 mb - 0.00 in0.0 mm 0.00 in0.0 mm
09:15 AM 37.0°F2.8°C 26.3°F-3.2°C 65% Calm Calm 1.2 mph1.9 kmh 26.46 in896.0 mb - 0.00 in0.0 mm 0.00 in0.0 mm
09:20 AM 38.0°F3.3°C 26.1°F-3.3°C 62% Calm Calm -- 26.46 in896.0 mb - 0.00 in0.0 mm 0.00 in0.0 mm
09:25 AM 38.0°F3.3°C 25.7°F-3.5°C 61% Calm Calm -- 26.46 in896.0 mb - 0.00 in0.0 mm 0.00 in0.0 mm
09:30 AM 39.0°F3.9°C 27.1°F-2.7°C 62% Calm Calm -- 26.46 in896.0 mb - 0.00 in0.0 mm 0.00 in0.0 mm
09:35 AM 39.0°F3.9°C 27.5°F-2.5°C 63% Calm Calm -- 26.46 in896.0 mb - 0.00 in0.0 mm 0.00 in0.0 mm
09:40 AM 38.0°F3.3°C 26.9°F-2.8°C 64% Calm Calm 1.2 mph1.9 kmh 26.46 in896.0 mb - 0.00 in0.0 mm 0.00 in0.0 mm
09:45 AM 38.0°F3.3°C 26.9°F-2.8°C 64% 1.2 mph NNW1.9 kmh NNW 1.2 mph1.9 kmh 26.45 in895.7 mb - 0.00 in0.0 mm 0.00 in0.0 mm
09:50 AM 39.0°F3.9°C 24.6°F-4.1°C 56% Calm Calm 1.2 mph1.9 kmh 26.45 in895.7 mb - 0.00 in0.0 mm 0.00 in0.0 mm
09:55 AM 39.7°F4.3°C 25.7°F-3.5°C 57% 1.2 mph W1.9 kmh W 3.5 mph5.6 kmh 26.45 in895.7 mb - 0.00 in0.0 mm 0.00 in0.0 mm
10:00 AM 40.0°F4.4°C 26.0°F-3.3°C 57% 2.3 mph W3.7 kmh W 3.5 mph5.6 kmh 26.45 in895.7 mb - 0.00 in0.0 mm 0.00 in0.0 mm
10:10 AM 39.0°F3.9°C 25.5°F-3.6°C 58% 2.3 mph W3.7 kmh W 3.5 mph5.6 kmh 26.45 in895.7 mb - 0.00 in0.0 mm 0.00 in0.0 mm
10:15 AM 40.0°F4.4°C 26.0°F-3.3°C 57% Calm Calm 1.2 mph1.9 kmh 26.45 in895.7 mb - 0.00 in0.0 mm 0.00 in0.0 mm
10:20 AM 40.0°F4.4°C 26.0°F-3.3°C 57% Calm Calm 1.2 mph1.9 kmh 26.45 in895.7 mb - 0.00 in0.0 mm 0.00 in0.0 mm
10:25 AM 41.0°F5.0°C 26.1°F-3.3°C 55% 1.2 mph NW1.9 kmh NW 1.2 mph1.9 kmh 26.45 in895.7 mb - 0.00 in0.0 mm 0.00 in0.0 mm
10:30 AM 41.0°F5.0°C 26.1°F-3.3°C 55% Calm Calm 1.2 mph1.9 kmh 26.45 in895.7 mb - 0.00 in0.0 mm 0.00 in0.0 mm
10:35 AM 42.0°F5.6°C 26.1°F-3.3°C 53% 1.2 mph NW1.9 kmh NW 1.2 mph1.9 kmh 26.45 in895.7 mb - 0.00 in0.0 mm 0.00 in0.0 mm
10:40 AM 42.0°F5.6°C 26.1°F-3.3°C 53% 2.3 mph W3.7 kmh W 3.5 mph5.6 kmh 26.45 in895.7 mb - 0.00 in0.0 mm 0.00 in0.0 mm
10:45 AM 42.5°F5.8°C 26.5°F-3.1°C 53% 1.2 mph W1.9 kmh W 3.5 mph5.6 kmh 26.45 in895.7 mb - 0.00 in0.0 mm 0.00 in0.0 mm
10:50 AM 44.0°F6.7°C 27.0°F-2.8°C 51% Calm Calm 1.2 mph1.9 kmh 26.45 in895.7 mb - 0.00 in0.0 mm 0.00 in0.0 mm
10:55 AM 46.0°F7.8°C 26.9°F-2.8°C 47% Calm Calm -- 26.44 in895.4 mb - 0.00 in0.0 mm 0.00 in0.0 mm
11:00 AM 46.0°F7.8°C 26.9°F-2.8°C 47% 1.2 mph N1.9 kmh N 1.2 mph1.9 kmh 26.42 in894.7 mb - 0.00 in0.0 mm 0.00 in0.0 mm
11:10 AM 46.0°F7.8°C 28.4°F-2.0°C 50% 2.3 mph NW3.7 kmh NW 2.3 mph3.7 kmh 26.42 in894.7 mb - 0.00 in0.0 mm 0.00 in0.0 mm
11:15 AM 48.0°F8.9°C 27.6°F-2.4°C 45% Calm Calm -- 26.42 in894.7 mb - 0.00 in0.0 mm 0.00 in0.0 mm
11:20 AM 48.0°F8.9°C 28.7°F-1.8°C 47% 1.2 mph WSW1.9 kmh WSW 2.3 mph3.7 kmh 26.41 in894.3 mb - 0.00 in0.0 mm 0.00 in0.0 mm
11:25 AM 48.0°F8.9°C 29.2°F-1.6°C 48% 2.3 mph W3.7 kmh W 3.5 mph5.6 kmh 26.41 in894.3 mb - 0.00 in0.0 mm 0.00 in0.0 mm
11:30 AM 46.0°F7.8°C 27.9°F-2.3°C 49% 3.5 mph W5.6 kmh W 5.8 mph9.3 kmh 26.41 in894.3 mb - 0.00 in0.0 mm 0.00 in0.0 mm
11:35 AM 46.0°F7.8°C 27.9°F-2.3°C 49% 3.5 mph W5.6 kmh W 5.8 mph9.3 kmh 26.40 in894.0 mb - 0.00 in0.0 mm 0.00 in0.0 mm
11:40 AM 46.0°F7.8°C 27.9°F-2.3°C 49% 2.3 mph W3.7 kmh W 2.3 mph3.7 kmh 26.40 in894.0 mb - 0.00 in0.0 mm 0.00 in0.0 mm
11:45 AM 47.0°F8.3°C 29.3°F-1.5°C 50% 2.3 mph WSW3.7 kmh WSW 3.5 mph5.6 kmh 26.39 in893.7 mb - 0.00 in0.0 mm 0.00 in0.0 mm
11:50 AM 48.0°F8.9°C 29.7°F-1.3°C 49% 3.5 mph WNW5.6 kmh WNW 5.8 mph9.3 kmh 26.39 in893.7 mb - 0.00 in0.0 mm 0.00 in0.0 mm
11:55 AM 46.0°F7.8°C 29.3°F-1.5°C 52% 1.2 mph NW1.9 kmh NW 1.2 mph1.9 kmh 26.38 in893.3 mb - 0.00 in0.0 mm 0.00 in0.0 mm
12:00 PM 46.0°F7.8°C 29.3°F-1.5°C 52% 3.5 mph WSW5.6 kmh WSW 5.8 mph9.3 kmh 26.38 in893.3 mb - 0.00 in0.0 mm 0.00 in0.0 mm
12:10 PM 45.0°F7.2°C 28.9°F-1.7°C 53% 1.2 mph WNW1.9 kmh WNW 3.5 mph5.6 kmh 26.37 in893.0 mb - 0.00 in0.0 mm 0.00 in0.0 mm
12:15 PM 45.1°F7.3°C 29.4°F-1.4°C 54% 1.2 mph W1.9 kmh W 3.5 mph5.6 kmh 26.37 in893.0 mb - 0.00 in0.0 mm 0.00 in0.0 mm
12:20 PM 46.0°F7.8°C 29.8°F-1.2°C 53% 2.3 mph W3.7 kmh W 3.5 mph5.6 kmh 26.37 in893.0 mb - 0.00 in0.0 mm 0.00 in0.0 mm
12:25 PM 45.0°F7.2°C 27.9°F-2.3°C 51% Calm Calm 1.2 mph1.9 kmh 26.36 in892.7 mb - 0.00 in0.0 mm 0.00 in0.0 mm
12:30 PM 45.0°F7.2°C 28.4°F-2.0°C 52% 1.2 mph NNW1.9 kmh NNW 2.3 mph3.7 kmh 26.36 in892.7 mb - 0.00 in0.0 mm 0.00 in0.0 mm
12:35 PM 45.0°F7.2°C 28.4°F-2.0°C 52% Calm Calm 1.2 mph1.9 kmh 26.36 in892.7 mb - 0.00 in0.0 mm 0.00 in0.0 mm
12:40 PM 45.0°F7.2°C 29.3°F-1.5°C 54% 2.3 mph WNW3.7 kmh WNW 2.3 mph3.7 kmh 26.36 in892.7 mb - 0.00 in0.0 mm 0.00 in0.0 mm
12:45 PM 44.0°F6.7°C 28.4°F-2.0°C 54% 1.2 mph NNW1.9 kmh NNW 1.2 mph1.9 kmh 26.36 in892.7 mb - 0.00 in0.0 mm 0.00 in0.0 mm
12:50 PM 44.0°F6.7°C 28.0°F-2.2°C 53% 1.2 mph NNE1.9 kmh NNE 2.3 mph3.7 kmh 26.35 in892.3 mb - 0.00 in0.0 mm 0.00 in0.0 mm
12:55 PM 44.0°F6.7°C 28.9°F-1.7°C 55% 2.3 mph NW3.7 kmh NW 3.5 mph5.6 kmh 26.35 in892.3 mb - 0.00 in0.0 mm 0.00 in0.0 mm
01:00 PM 44.0°F6.7°C 28.9°F-1.7°C 55% 1.2 mph NW1.9 kmh NW 3.5 mph5.6 kmh 26.35 in892.3 mb - 0.00 in0.0 mm 0.00 in0.0 mm
01:10 PM 44.0°F6.7°C 28.4°F-2.0°C 54% Calm Calm -- 26.34 in892.0 mb - 0.00 in0.0 mm 0.00 in0.0 mm
01:15 PM 44.0°F6.7°C 28.4°F-2.0°C 54% Calm Calm -- 26.33 in891.6 mb - 0.00 in0.0 mm 0.00 in0.0 mm
01:20 PM 45.0°F7.2°C 30.2°F-1.0°C 56% 1.2 mph NW1.9 kmh NW 1.2 mph1.9 kmh 26.34 in892.0 mb - 0.00 in0.0 mm 0.00 in0.0 mm
01:25 PM 45.0°F7.2°C 29.3°F-1.5°C 54% Calm Calm -- 26.32 in891.3 mb - 0.00 in0.0 mm 0.00 in0.0 mm
01:30 PM 45.0°F7.2°C 28.9°F-1.7°C 53% Calm Calm -- 26.32 in891.3 mb - 0.00 in0.0 mm 0.00 in0.0 mm
01:35 PM 45.0°F7.2°C 29.8°F-1.2°C 55% Calm Calm -- 26.32 in891.3 mb - 0.00 in0.0 mm 0.00 in0.0 mm
01:40 PM 45.0°F7.2°C 30.2°F-1.0°C 56% Calm Calm -- 26.31 in891.0 mb - 0.00 in0.0 mm 0.00 in0.0 mm
01:45 PM 45.0°F7.2°C 30.2°F-1.0°C 56% Calm Calm 2.3 mph3.7 kmh 26.31 in891.0 mb - 0.00 in0.0 mm 0.00 in0.0 mm
01:50 PM 45.0°F7.2°C 30.2°F-1.0°C 56% 1.2 mph NW1.9 kmh NW 2.3 mph3.7 kmh 26.31 in891.0 mb - 0.00 in0.0 mm 0.00 in0.0 mm
01:55 PM 45.0°F7.2°C 30.7°F-0.7°C 57% Calm Calm -- 26.30 in890.6 mb - 0.00 in0.0 mm 0.00 in0.0 mm
02:00 PM 45.0°F7.2°C 30.7°F-0.7°C 57% Calm Calm -- 26.30 in890.6 mb - 0.00 in0.0 mm 0.00 in0.0 mm
02:10 PM 45.0°F7.2°C 32.3°F0.2°C 61% Calm Calm -- 26.29 in890.3 mb - 0.00 in0.0 mm 0.00 in0.0 mm
02:15 PM 44.0°F6.7°C 32.2°F0.1°C 63% Calm Calm -- 26.29 in890.3 mb - 0.00 in0.0 mm 0.00 in0.0 mm
02:20 PM 44.0°F6.7°C 33.0°F0.6°C 65% Calm Calm -- 26.29 in890.3 mb - 0.00 in0.0 mm 0.00 in0.0 mm
02:25 PM 44.0°F6.7°C 34.1°F1.2°C 68% Calm Calm -- 26.28 in889.9 mb - 0.00 in0.0 mm 0.00 in0.0 mm
02:30 PM 44.0°F6.7°C 34.8°F1.6°C 70% Calm Calm -- 26.28 in889.9 mb - 0.00 in0.0 mm 0.00 in0.0 mm
02:35 PM 44.0°F6.7°C 35.2°F1.8°C 71% Calm Calm -- 26.28 in889.9 mb - 0.00 in0.0 mm 0.00 in0.0 mm
02:40 PM 44.0°F6.7°C 34.5°F1.4°C 69% Calm Calm -- 26.28 in889.9 mb - 0.00 in0.0 mm 0.00 in0.0 mm
02:45 PM 43.0°F6.1°C 33.9°F1.1°C 70% Calm Calm -- 26.28 in889.9 mb - 0.00 in0.0 mm 0.00 in0.0 mm
02:50 PM 43.0°F6.1°C 34.6°F1.4°C 72% Calm Calm -- 26.27 in889.6 mb - 0.00 in0.0 mm 0.00 in0.0 mm
02:55 PM 43.0°F6.1°C 36.6°F2.6°C 78% Calm Calm -- 26.27 in889.6 mb - 0.00 in0.0 mm 0.00 in0.0 mm
03:00 PM 42.0°F5.6°C 36.6°F2.6°C 81% Calm Calm -- 26.27 in889.6 mb - 0.00 in0.0 mm 0.00 in0.0 mm
03:10 PM 41.0°F5.0°C 34.0°F1.1°C 76% Calm Calm -- 26.27 in889.6 mb - 0.01 in0.3 mm 0.01 in0.3 mm
03:15 PM 41.0°F5.0°C 35.0°F1.7°C 79% Calm Calm -- 26.26 in889.3 mb - 0.01 in0.3 mm 0.01 in0.3 mm
03:20 PM 40.6°F4.8°C 34.6°F1.4°C 79% Calm Calm -- 26.26 in889.3 mb - 0.02 in0.5 mm 0.02 in0.5 mm
03:25 PM 40.0°F4.4°C 33.7°F0.9°C 78% Calm Calm -- 26.27 in889.6 mb - 0.02 in0.5 mm 0.02 in0.5 mm
03:30 PM 40.0°F4.4°C 35.6°F2.0°C 84% Calm Calm -- 26.27 in889.6 mb - 0.02 in0.5 mm 0.02 in0.5 mm
03:35 PM 40.0°F4.4°C 34.9°F1.6°C 82% Calm Calm -- 26.27 in889.6 mb - 0.02 in0.5 mm 0.02 in0.5 mm
03:40 PM 39.0°F3.9°C 35.5°F1.9°C 87% Calm Calm -- 26.26 in889.3 mb - 0.03 in0.8 mm 0.03 in0.8 mm
03:45 PM 39.0°F3.9°C 35.5°F1.9°C 87% Calm Calm -- 26.27 in889.6 mb - 0.03 in0.8 mm 0.03 in0.8 mm
03:50 PM 39.0°F3.9°C 36.0°F2.2°C 89% Calm Calm -- 26.26 in889.3 mb - 0.04 in1.0 mm 0.04 in1.0 mm
03:55 PM 39.0°F3.9°C 36.6°F2.6°C 91% Calm Calm -- 26.27 in889.6 mb - 0.05 in1.3 mm 0.05 in1.3 mm
04:00 PM 39.0°F3.9°C 36.9°F2.7°C 92% Calm Calm -- 26.27 in889.6 mb - 0.06 in1.5 mm 0.06 in1.5 mm
04:10 PM 38.0°F3.3°C 36.2°F2.3°C 93% Calm Calm -- 26.27 in889.6 mb - 0.08 in2.0 mm 0.09 in2.3 mm
04:15 PM 38.0°F3.3°C 36.2°F2.3°C 93% Calm Calm -- 26.28 in889.9 mb - 0.08 in2.0 mm 0.09 in2.3 mm
04:20 PM 37.0°F2.8°C 35.2°F1.8°C 93% Calm Calm -- 26.28 in889.9 mb - 0.09 in2.3 mm 0.10 in2.5 mm
04:25 PM 37.0°F2.8°C 35.2°F1.8°C 93% Calm Calm -- 26.29 in890.3 mb - 0.09 in2.3 mm 0.11 in2.8 mm
04:30 PM 37.0°F2.8°C 35.4°F1.9°C 94% Calm Calm -- 26.29 in890.3 mb - 0.11 in2.8 mm 0.13 in3.3 mm
04:35 PM 36.0°F2.2°C 34.7°F1.5°C 95% Calm Calm -- 26.29 in890.3 mb - 0.12 in3.0 mm 0.14 in3.6 mm
04:40 PM 36.0°F2.2°C 34.7°F1.5°C 95% Calm Calm -- 26.30 in890.6 mb - 0.12 in3.0 mm 0.15 in3.8 mm
04:45 PM 35.0°F1.7°C 33.7°F0.9°C 95% Calm Calm -- 26.30 in890.6 mb - 0.14 in3.6 mm 0.17 in4.3 mm
04:50 PM 35.0°F1.7°C 34.0°F1.1°C 96% Calm Calm -- 26.31 in891.0 mb - 0.14 in3.6 mm 0.18 in4.6 mm
04:55 PM 35.0°F1.7°C 34.0°F1.1°C 96% Calm Calm -- 26.31 in891.0 mb - 0.14 in3.6 mm 0.19 in4.8 mm
05:00 PM 35.0°F1.7°C 33.7°F0.9°C 95% Calm Calm -- 26.31 in891.0 mb - 0.13 in3.3 mm 0.19 in4.8 mm
05:10 PM 34.0°F1.1°C 33.0°F0.6°C 96% Calm Calm -- 26.30 in890.6 mb - 0.15 in3.8 mm 0.22 in5.6 mm
05:15 PM 35.0°F1.7°C 34.0°F1.1°C 96% Calm Calm -- 26.31 in891.0 mb - 0.14 in3.6 mm 0.23 in5.8 mm
05:20 PM 35.0°F1.7°C 34.0°F1.1°C 96% Calm Calm -- 26.31 in891.0 mb - 0.14 in3.6 mm 0.24 in6.1 mm
05:25 PM 34.0°F1.1°C 33.2°F0.7°C 97% Calm Calm -- 26.31 in891.0 mb - 0.14 in3.6 mm 0.25 in6.4 mm
05:30 PM 35.0°F1.7°C 34.2°F1.2°C 97% Calm Calm -- 26.31 in891.0 mb - 0.12 in3.0 mm 0.25 in6.4 mm
05:35 PM 35.0°F1.7°C 34.2°F1.2°C 97% Calm Calm -- 26.30 in890.6 mb - 0.11 in2.8 mm 0.25 in6.4 mm
05:40 PM 35.0°F1.7°C 34.2°F1.2°C 97% Calm Calm -- 26.30 in890.6 mb - 0.10 in2.5 mm 0.25 in6.4 mm
05:45 PM 35.0°F1.7°C 34.2°F1.2°C 97% Calm Calm -- 26.31 in891.0 mb - 0.08 in2.0 mm 0.25 in6.4 mm
05:50 PM 35.0°F1.7°C 34.2°F1.2°C 97% Calm Calm -- 26.31 in891.0 mb - 0.09 in2.3 mm 0.26 in6.6 mm
05:55 PM 35.0°F1.7°C 34.2°F1.2°C 97% Calm Calm -- 26.31 in891.0 mb - 0.08 in2.0 mm 0.26 in6.6 mm
06:00 PM 35.0°F1.7°C 34.2°F1.2°C 97% Calm Calm -- 26.31 in891.0 mb - 0.07 in1.8 mm 0.26 in6.6 mm
06:10 PM 35.0°F1.7°C 34.2°F1.2°C 97% Calm Calm -- 26.31 in891.0 mb - 0.04 in1.0 mm 0.26 in6.6 mm
06:15 PM 35.0°F1.7°C 34.2°F1.2°C 97% Calm Calm -- 26.31 in891.0 mb - 0.03 in0.8 mm 0.26 in6.6 mm
06:20 PM 35.0°F1.7°C 34.2°F1.2°C 97% Calm Calm -- 26.32 in891.3 mb - 0.02 in0.5 mm 0.26 in6.6 mm
06:25 PM 35.0°F1.7°C 34.2°F1.2°C 97% Calm Calm -- 26.32 in891.3 mb - 0.01 in0.3 mm 0.26 in6.6 mm
06:30 PM 35.0°F1.7°C 34.2°F1.2°C 97% Calm Calm -- 26.32 in891.3 mb - 0.01 in0.3 mm 0.26 in6.6 mm
06:35 PM 35.0°F1.7°C 34.2°F1.2°C 97% Calm Calm -- 26.32 in891.3 mb - 0.01 in0.3 mm 0.26 in6.6 mm
06:40 PM 34.0°F1.1°C 33.2°F0.7°C 97% Calm Calm -- 26.32 in891.3 mb - 0.01 in0.3 mm 0.26 in6.6 mm
06:45 PM 35.0°F1.7°C 34.2°F1.2°C 97% Calm Calm -- 26.32 in891.3 mb - 0.01 in0.3 mm 0.26 in6.6 mm
06:50 PM 35.0°F1.7°C 34.2°F1.2°C 97% Calm Calm -- 26.32 in891.3 mb - 0.00 in0.0 mm 0.26 in6.6 mm
06:55 PM 35.0°F1.7°C 34.2°F1.2°C 97% Calm Calm -- 26.32 in891.3 mb - 0.00 in0.0 mm 0.26 in6.6 mm
07:00 PM 35.0°F1.7°C 34.2°F1.2°C 97% Calm Calm -- 26.33 in891.6 mb - 0.00 in0.0 mm 0.26 in6.6 mm
07:10 PM 35.0°F1.7°C 34.2°F1.2°C 97% Calm Calm -- 26.33 in891.6 mb - 0.00 in0.0 mm 0.26 in6.6 mm
07:15 PM 35.0°F1.7°C 34.2°F1.2°C 97% Calm Calm -- 26.33 in891.6 mb - 0.00 in0.0 mm 0.26 in6.6 mm
07:20 PM 35.0°F1.7°C 34.2°F1.2°C 97% Calm Calm -- 26.33 in891.6 mb - 0.00 in0.0 mm 0.26 in6.6 mm
07:25 PM 35.0°F1.7°C 34.2°F1.2°C 97% Calm Calm -- 26.33 in891.6 mb - 0.00 in0.0 mm 0.26 in6.6 mm
07:30 PM 35.0°F1.7°C 34.2°F1.2°C 97% Calm Calm -- 26.33 in891.6 mb - 0.00 in0.0 mm 0.26 in6.6 mm
07:35 PM 35.0°F1.7°C 34.2°F1.2°C 97% Calm Calm -- 26.35 in892.3 mb - 0.00 in0.0 mm 0.26 in6.6 mm
07:40 PM 35.0°F1.7°C 34.2°F1.2°C 97% Calm Calm -- 26.34 in892.0 mb - 0.00 in0.0 mm 0.26 in6.6 mm
07:45 PM 35.0°F1.7°C 34.2°F1.2°C 97% Calm Calm -- 26.35 in892.3 mb - 0.00 in0.0 mm 0.26 in6.6 mm
07:50 PM 35.0°F1.7°C 34.2°F1.2°C 97% Calm Calm -- 26.35 in892.3 mb - 0.00 in0.0 mm 0.26 in6.6 mm
07:55 PM 35.0°F1.7°C 34.2°F1.2°C 97% Calm Calm -- 26.36 in892.7 mb - 0.00 in0.0 mm 0.26 in6.6 mm
08:00 PM 35.0°F1.7°C 34.5°F1.4°C 98% Calm Calm -- 26.35 in892.3 mb - 0.00 in0.0 mm 0.26 in6.6 mm
08:10 PM 35.0°F1.7°C 34.5°F1.4°C 98% Calm Calm -- 26.35 in892.3 mb - 0.00 in0.0 mm 0.26 in6.6 mm
08:15 PM 35.0°F1.7°C 34.5°F1.4°C 98% Calm Calm -- 26.36 in892.7 mb - 0.00 in0.0 mm 0.26 in6.6 mm
08:20 PM 35.0°F1.7°C 34.2°F1.2°C 97% Calm Calm -- 26.35 in892.3 mb - 0.00 in0.0 mm 0.26 in6.6 mm
08:25 PM 35.9°F2.2°C 35.1°F1.7°C 97% Calm Calm -- 26.36 in892.7 mb - 0.00 in0.0 mm 0.26 in6.6 mm
08:30 PM 35.6°F2.0°C 34.8°F1.6°C 97% Calm Calm -- 26.36 in892.7 mb - 0.00 in0.0 mm 0.26 in6.6 mm
08:35 PM 35.0°F1.7°C 34.2°F1.2°C 97% Calm Calm -- 26.36 in892.7 mb - 0.00 in0.0 mm 0.26 in6.6 mm
08:40 PM 35.0°F1.7°C 34.2°F1.2°C 97% Calm Calm -- 26.36 in892.7 mb - 0.00 in0.0 mm 0.26 in6.6 mm
08:45 PM 35.0°F1.7°C 34.2°F1.2°C 97% Calm Calm -- 26.36 in892.7 mb - 0.00 in0.0 mm 0.26 in6.6 mm
08:50 PM 35.0°F1.7°C 34.2°F1.2°C 97% Calm Calm -- 26.36 in892.7 mb - 0.00 in0.0 mm 0.26 in6.6 mm
08:55 PM 35.0°F1.7°C 34.2°F1.2°C 97% Calm Calm -- 26.36 in892.7 mb - 0.00 in0.0 mm 0.26 in6.6 mm
09:00 PM 35.0°F1.7°C 34.2°F1.2°C 97% Calm Calm -- 26.36 in892.7 mb - 0.00 in0.0 mm 0.26 in6.6 mm
09:10 PM 35.0°F1.7°C 34.2°F1.2°C 97% Calm Calm -- 26.36 in892.7 mb - 0.00 in0.0 mm 0.26 in6.6 mm
09:15 PM 35.0°F1.7°C 34.2°F1.2°C 97% Calm Calm -- 26.36 in892.7 mb - 0.00 in0.0 mm 0.26 in6.6 mm
09:20 PM 35.0°F1.7°C 34.2°F1.2°C 97% Calm Calm -- 26.36 in892.7 mb - 0.00 in0.0 mm 0.26 in6.6 mm
09:25 PM 35.0°F1.7°C 34.2°F1.2°C 97% Calm Calm -- 26.36 in892.7 mb - 0.00 in0.0 mm 0.26 in6.6 mm
09:30 PM 35.0°F1.7°C 34.2°F1.2°C 97% Calm Calm -- 26.36 in892.7 mb - 0.00 in0.0 mm 0.26 in6.6 mm
09:35 PM 35.0°F1.7°C 34.2°F1.2°C 97% Calm Calm -- 26.36 in892.7 mb - 0.00 in0.0 mm 0.26 in6.6 mm
09:40 PM 35.0°F1.7°C 34.2°F1.2°C 97% Calm Calm -- 26.36 in892.7 mb - 0.00 in0.0 mm 0.26 in6.6 mm
09:45 PM 35.0°F1.7°C 34.2°F1.2°C 97% Calm Calm -- 26.36 in892.7 mb - 0.00 in0.0 mm 0.26 in6.6 mm
09:50 PM 35.0°F1.7°C 34.2°F1.2°C 97% Calm Calm -- 26.36 in892.7 mb - 0.00 in0.0 mm 0.26 in6.6 mm
09:55 PM 35.0°F1.7°C 34.2°F1.2°C 97% Calm Calm -- 26.36 in892.7 mb - 0.00 in0.0 mm 0.26 in6.6 mm
10:00 PM 35.0°F1.7°C 34.2°F1.2°C 97% Calm Calm -- 26.36 in892.7 mb - 0.00 in0.0 mm 0.26 in6.6 mm
10:10 PM 35.0°F1.7°C 34.2°F1.2°C 97% Calm Calm -- 26.36 in892.7 mb - 0.00 in0.0 mm 0.26 in6.6 mm
10:15 PM 35.0°F1.7°C 34.2°F1.2°C 97% Calm Calm -- 26.36 in892.7 mb - 0.00 in0.0 mm 0.26 in6.6 mm
10:20 PM 35.0°F1.7°C 34.2°F1.2°C 97% Calm Calm -- 26.36 in892.7 mb - 0.00 in0.0 mm 0.26 in6.6 mm
10:25 PM 35.0°F1.7°C 34.2°F1.2°C 97% Calm Calm -- 26.36 in892.7 mb - 0.00 in0.0 mm 0.26 in6.6 mm
10:30 PM 35.0°F1.7°C 34.2°F1.2°C 97% Calm Calm -- 26.36 in892.7 mb - 0.00 in0.0 mm 0.26 in6.6 mm
10:35 PM 35.0°F1.7°C 34.2°F1.2°C 97% Calm Calm -- 26.36 in892.7 mb - 0.00 in0.0 mm 0.26 in6.6 mm
10:40 PM 35.0°F1.7°C 34.2°F1.2°C 97% Calm Calm -- 26.36 in892.7 mb - 0.00 in0.0 mm 0.26 in6.6 mm
10:45 PM 35.0°F1.7°C 34.2°F1.2°C 97% Calm Calm -- 26.36 in892.7 mb - 0.00 in0.0 mm 0.26 in6.6 mm
10:50 PM 35.0°F1.7°C 34.2°F1.2°C 97% Calm Calm -- 26.36 in892.7 mb - 0.00 in0.0 mm 0.26 in6.6 mm
10:55 PM 35.0°F1.7°C 34.2°F1.2°C 97% Calm Calm -- 26.36 in892.7 mb - 0.00 in0.0 mm 0.26 in6.6 mm
11:00 PM 35.0°F1.7°C 34.2°F1.2°C 97% Calm Calm -- 26.36 in892.7 mb - 0.00 in0.0 mm 0.26 in6.6 mm
11:10 PM 35.0°F1.7°C 34.2°F1.2°C 97% Calm Calm -- 26.36 in892.7 mb - 0.00 in0.0 mm 0.26 in6.6 mm
11:15 PM 35.0°F1.7°C 34.2°F1.2°C 97% Calm Calm -- 26.36 in892.7 mb - 0.00 in0.0 mm 0.26 in6.6 mm
11:20 PM 35.0°F1.7°C 34.2°F1.2°C 97% Calm Calm -- 26.36 in892.7 mb - 0.00 in0.0 mm 0.26 in6.6 mm
11:25 PM 35.0°F1.7°C 34.2°F1.2°C 97% Calm Calm -- 26.36 in892.7 mb - 0.00 in0.0 mm 0.26 in6.6 mm
11:30 PM 35.0°F1.7°C 34.2°F1.2°C 97% Calm Calm -- 26.36 in892.7 mb - 0.00 in0.0 mm 0.26 in6.6 mm
11:35 PM 35.0°F1.7°C 34.2°F1.2°C 97% Calm Calm -- 26.36 in892.7 mb - 0.00 in0.0 mm 0.26 in6.6 mm
11:40 PM 35.0°F1.7°C 34.2°F1.2°C 97% Calm Calm -- 26.36 in892.7 mb - 0.00 in0.0 mm 0.26 in6.6 mm
11:45 PM 35.0°F1.7°C 34.2°F1.2°C 97% Calm Calm -- 26.36 in892.7 mb - 0.00 in0.0 mm 0.26 in6.6 mm
11:50 PM 35.0°F1.7°C 34.2°F1.2°C 97% Calm Calm -- 26.36 in892.7 mb - 0.00 in0.0 mm 0.26 in6.6 mm
11:55 PM 35.0°F1.7°C 34.2°F1.2°C 97% Calm Calm -- 26.36 in892.7 mb - 0.00 in0.0 mm 0.26 in6.6 mm